Time;durP1;ratioP1;P1;durP2;ratioP2;P2;SDS_P1;SDS_P2;PMS_P1;PMS_P2;Temp;Humidity;BMP_temperature;BMP_pressure;BME280_temperature;BME280_humidity;BME280_pressure;Samples;Min_cycle;Max_cycle;Signal;HPM_P1;HPM_P2
2022/11/07 00:02:15;;;;;;;1.30;1.08;;;10.60;99.90;;;;;;4937940;28;20482;-80
2022/11/07 00:04:41;;;;;;;2.38;0.93;;;10.50;99.90;;;;;;4954076;28;20035;-80
2022/11/07 00:07:07;;;;;;;1.90;1.08;;;10.60;99.90;;;;;;4948891;28;20367;-80
2022/11/07 00:09:33;;;;;;;4.45;1.35;;;10.60;99.90;;;;;;4957294;28;20734;-80
2022/11/07 00:11:58;;;;;;;2.13;1.20;;;10.60;99.90;;;;;;4938575;28;20030;-80
2022/11/07 00:14:25;;;;;;;3.15;1.20;;;10.60;99.90;;;;;;4939542;28;20096;-81
2022/11/07 00:16:50;;;;;;;4.40;1.20;;;10.60;99.90;;;;;;4938051;28;20027;-80
2022/11/07 00:19:17;;;;;;;3.38;1.50;;;10.60;99.90;;;;;;4932918;28;20046;-80
2022/11/07 00:21:43;;;;;;;2.03;1.00;;;10.50;99.90;;;;;;4977521;28;20031;-80
2022/11/07 00:24:10;;;;;;;2.38;1.20;;;10.50;99.90;;;;;;4938223;28;20034;-80
2022/11/07 00:26:36;;;;;;;2.15;0.93;;;10.50;99.90;;;;;;4950310;28;20047;-81
2022/11/07 00:29:02;;;;;;;1.48;0.77;;;10.60;99.90;;;;;;4951486;28;20110;-80
2022/11/07 00:31:27;;;;;;;3.40;1.00;;;10.60;99.90;;;;;;4940205;28;20104;-81
2022/11/07 00:33:53;;;;;;;3.58;1.20;;;10.60;99.90;;;;;;4952485;28;20498;-80
2022/11/07 00:36:20;;;;;;;2.33;0.77;;;10.60;99.90;;;;;;4982685;28;20035;-81
2022/11/07 00:38:45;;;;;;;2.85;1.20;;;10.60;99.90;;;;;;4957069;28;20027;-80
2022/11/07 00:41:11;;;;;;;0.75;0.47;;;10.70;99.90;;;;;;4948568;28;20030;-80
2022/11/07 00:43:37;;;;;;;6.50;0.98;;;10.70;99.90;;;;;;4952592;28;20034;-81
2022/11/07 00:46:03;;;;;;;5.88;1.13;;;10.60;99.90;;;;;;4950742;28;20031;-81
2022/11/07 00:48:29;;;;;;;2.53;1.20;;;10.70;99.90;;;;;;4970980;28;20064;-80
2022/11/07 00:51:03;;;;;;;1.77;0.90;;;10.70;99.90;;;;;;4950168;28;20038;-81
2022/11/07 00:53:28;;;;;;;3.47;1.00;;;10.70;99.90;;;;;;4935160;28;20038;-81
2022/11/07 00:55:59;;;;;;;3.92;0.82;;;10.70;99.90;;;;;;4939047;28;20026;-80
2022/11/07 00:58:25;;;;;;;0.85;0.40;;;10.70;99.90;;;;;;4933497;28;20122;-80
2022/11/07 01:00:50;;;;;;;4.40;1.23;;;10.70;99.90;;;;;;4958878;28;20397;-80
2022/11/07 01:06:01;;;;;;;1.85;0.80;;;10.70;99.90;;;;;;4970322;28;20125;-80
2022/11/07 01:08:27;;;;;;;1.25;0.73;;;10.70;99.90;;;;;;4951579;28;20512;-81
2022/11/07 01:10:52;;;;;;;1.70;1.02;;;10.60;99.90;;;;;;4954645;28;20034;-80
2022/11/07 01:13:18;;;;;;;2.47;1.52;;;10.70;99.90;;;;;;4966863;28;20740;-81
2022/11/07 01:15:44;;;;;;;2.47;1.05;;;10.70;99.90;;;;;;4956080;28;20027;-80
2022/11/07 01:18:09;;;;;;;2.75;0.93;;;10.70;99.90;;;;;;4955158;28;20708;-80
2022/11/07 01:20:35;;;;;;;2.33;1.23;;;10.60;99.90;;;;;;4941997;28;20038;-80
2022/11/07 01:23:01;;;;;;;5.05;1.35;;;10.60;99.90;;;;;;4952127;28;20042;-80
2022/11/07 01:25:26;;;;;;;2.22;1.17;;;10.60;99.90;;;;;;4959383;28;20490;-81
2022/11/07 01:27:52;;;;;;;2.78;0.80;;;10.60;99.90;;;;;;4940505;28;20045;-80
2022/11/07 01:30:17;;;;;;;0.70;0.50;;;10.50;99.90;;;;;;4935120;28;20057;-80
2022/11/07 01:32:43;;;;;;;0.93;0.70;;;10.50;99.90;;;;;;4982295;28;20036;-80
2022/11/07 01:35:09;;;;;;;2.92;1.00;;;10.40;99.90;;;;;;4932048;28;20101;-81
2022/11/07 01:37:34;;;;;;;1.77;0.98;;;10.40;99.90;;;;;;4967534;28;20035;-80
2022/11/07 01:40:00;;;;;;;1.27;0.90;;;10.40;99.90;;;;;;4942464;28;20027;-81
2022/11/07 01:42:25;;;;;;;0.90;0.65;;;10.40;99.90;;;;;;4970502;28;20035;-80
2022/11/07 01:44:54;;;;;;;3.78;0.70;;;10.40;99.90;;;;;;4957880;28;20581;-80
2022/11/07 01:47:20;;;;;;;2.80;0.98;;;10.40;99.90;;;;;;4953058;28;20031;-80
2022/11/07 01:49:45;;;;;;;0.80;0.77;;;10.40;99.90;;;;;;4948509;28;20104;-80
2022/11/07 01:52:28;;;;;;;3.53;0.77;;;10.30;99.90;;;;;;4960869;28;20046;-80
2022/11/07 01:54:59;;;;;;;1.15;0.70;;;10.30;99.90;;;;;;4961282;28;20398;-81
2022/11/07 01:57:26;;;;;;;3.17;0.88;;;10.20;99.90;;;;;;4951937;28;20050;-80
2022/11/07 01:59:52;;;;;;;3.33;1.05;;;10.30;99.90;;;;;;4951373;28;20157;-80
2022/11/07 02:02:18;;;;;;;2.90;0.98;;;10.20;99.90;;;;;;4959203;28;20516;-81
2022/11/07 02:04:43;;;;;;;1.50;0.60;;;10.20;99.90;;;;;;4952057;28;20042;-80
2022/11/07 02:07:09;;;;;;;1.38;0.80;;;10.30;99.90;;;;;;4942582;28;20034;-80
2022/11/07 02:09:34;;;;;;;2.13;0.95;;;10.20;99.90;;;;;;4968413;28;20038;-80
2022/11/07 02:12:00;;;;;;;3.55;0.80;;;10.20;99.90;;;;;;4945002;28;20076;-80
2022/11/07 02:14:26;;;;;;;2.55;1.00;;;10.20;99.90;;;;;;4953618;28;20039;-80
2022/11/07 02:16:54;;;;;;;1.58;0.77;;;10.20;99.90;;;;;;4966329;28;20023;-80
2022/11/07 02:19:33;;;;;;;1.73;0.95;;;10.20;99.90;;;;;;4953667;28;20043;-80
2022/11/07 02:22:36;;;;;;;2.70;0.63;;;10.10;99.90;;;;;;4943011;28;20445;-80
2022/11/07 02:25:05;;;;;;;4.45;0.57;;;10.10;99.90;;;;;;4981165;28;20485;-80
2022/11/07 02:27:31;;;;;;;5.07;1.10;;;10.10;99.90;;;;;;4965373;28;20335;-80
2022/11/07 02:30:04;;;;;;;7.50;1.20;;;10.10;99.90;;;;;;4984686;28;20118;-80
2022/11/07 02:32:30;;;;;;;1.17;0.47;;;10.10;99.90;;;;;;4934523;28;20696;-80
2022/11/07 02:34:56;;;;;;;6.72;1.45;;;10.20;99.90;;;;;;4953579;28;20051;-80
2022/11/07 02:37:25;;;;;;;3.72;1.10;;;10.20;99.90;;;;;;4939687;28;20122;-80
2022/11/07 02:39:51;;;;;;;1.23;0.85;;;10.10;99.90;;;;;;4953291;28;20062;-80
2022/11/07 02:42:16;;;;;;;5.82;1.23;;;10.10;99.90;;;;;;4972663;28;20062;-80
2022/11/07 02:44:42;;;;;;;4.68;1.55;;;10.10;99.90;;;;;;4952446;28;20082;-81
2022/11/07 02:47:07;;;;;;;1.77;1.05;;;10.10;99.90;;;;;;4939735;28;20029;-80
2022/11/07 02:49:33;;;;;;;3.03;0.45;;;10.00;99.90;;;;;;4955382;28;20110;-80
2022/11/07 02:51:58;;;;;;;4.75;0.98;;;10.10;99.90;;;;;;4942722;28;20058;-80
2022/11/07 02:54:24;;;;;;;4.82;1.20;;;10.10;99.90;;;;;;4951137;28;20035;-80
2022/11/07 02:56:49;;;;;;;0.90;0.70;;;10.10;99.90;;;;;;4967602;28;20027;-80
2022/11/07 02:59:15;;;;;;;5.05;2.10;;;10.10;99.90;;;;;;4943268;28;20069;-80
2022/11/07 03:01:41;;;;;;;1.33;0.60;;;10.10;99.90;;;;;;4958302;28;20103;-80
2022/11/07 03:04:06;;;;;;;1.17;0.60;;;10.20;99.90;;;;;;4940878;28;20030;-80
2022/11/07 03:06:34;;;;;;;2.17;1.00;;;10.20;99.90;;;;;;4965136;28;20157;-80
2022/11/07 03:08:59;;;;;;;2.97;1.00;;;10.20;99.90;;;;;;4959172;28;20549;-80
2022/11/07 03:11:25;;;;;;;1.95;0.70;;;10.20;99.90;;;;;;4951174;28;20027;-80
2022/11/07 03:13:50;;;;;;;3.72;0.52;;;10.20;99.90;;;;;;4967646;28;20402;-80
2022/11/07 03:16:17;;;;;;;2.65;0.95;;;10.20;99.90;;;;;;4951848;28;20378;-80
2022/11/07 03:18:42;;;;;;;2.63;0.82;;;10.30;99.90;;;;;;4967924;28;20067;-85
2022/11/07 03:21:08;;;;;;;3.53;0.75;;;10.30;99.90;;;;;;4955895;28;20132;-85
2022/11/07 03:23:34;;;;;;;1.55;1.10;;;10.30;99.90;;;;;;4972385;28;20031;-85
2022/11/07 03:25:59;;;;;;;2.58;0.80;;;10.30;99.90;;;;;;4966824;28;20034;-80
2022/11/07 03:28:25;;;;;;;1.85;0.68;;;10.30;99.90;;;;;;4982104;28;20372;-81
2022/11/07 03:30:51;;;;;;;1.27;0.65;;;10.30;99.90;;;;;;4967973;28;20039;-80
2022/11/07 03:33:16;;;;;;;3.70;1.10;;;10.30;99.90;;;;;;4956083;28;20026;-81
2022/11/07 03:35:42;;;;;;;3.47;0.93;;;10.30;99.90;;;;;;4951756;28;20039;-80
2022/11/07 03:38:08;;;;;;;2.95;0.80;;;10.30;99.90;;;;;;4967264;28;20058;-81
2022/11/07 03:40:33;;;;;;;5.25;1.67;;;10.20;99.90;;;;;;4951731;28;20055;-80
2022/11/07 03:42:59;;;;;;;3.45;0.77;;;10.30;99.90;;;;;;4966563;28;20385;-80
2022/11/07 03:45:24;;;;;;;5.95;1.98;;;10.20;99.90;;;;;;4954728;28;20062;-80
2022/11/07 03:47:50;;;;;;;2.80;0.88;;;10.30;99.90;;;;;;4952216;28;20063;-81
2022/11/07 03:50:18;;;;;;;2.50;0.73;;;10.20;99.90;;;;;;4970583;28;20038;-80
2022/11/07 03:52:43;;;;;;;2.42;0.68;;;10.20;99.90;;;;;;4969794;28;20045;-80
2022/11/07 03:55:09;;;;;;;9.85;2.13;;;10.20;99.90;;;;;;4968550;28;20034;-80
2022/11/07 03:57:35;;;;;;;6.45;1.35;;;10.20;99.90;;;;;;4937088;28;20038;-80
2022/11/07 04:00:01;;;;;;;5.95;1.10;;;10.10;99.90;;;;;;4942777;28;20036;-80
2022/11/07 04:02:26;;;;;;;2.40;1.20;;;10.00;99.90;;;;;;4970563;28;20094;-79
2022/11/07 04:04:52;;;;;;;8.60;1.50;;;10.20;99.90;;;;;;4949944;28;20042;-80
2022/11/07 04:07:17;;;;;;;8.35;1.13;;;10.20;99.90;;;;;;4962922;28;20430;-80
2022/11/07 04:09:43;;;;;;;3.00;1.10;;;10.20;99.90;;;;;;4939210;28;20507;-80
2022/11/07 04:17:37;;;;;;;6.13;0.60;;;10.10;99.90;;;;;;4960520;28;20122;-79
2022/11/07 04:20:03;;;;;;;5.32;0.85;;;10.20;99.90;;;;;;4938432;28;20110;-79
2022/11/07 04:22:28;;;;;;;4.97;1.38;;;10.10;99.90;;;;;;4951959;28;20023;-79
2022/11/07 04:24:54;;;;;;;6.88;1.23;;;10.10;99.90;;;;;;4952245;28;20402;-79
2022/11/07 04:30:23;;;;;;;4.80;1.55;;;10.20;99.90;;;;;;4953523;28;20419;-79
2022/11/07 04:32:49;;;;;;;0.82;0.63;;;10.20;99.90;;;;;;4940346;28;20034;-79
2022/11/07 04:35:15;;;;;;;6.53;1.33;;;10.20;99.90;;;;;;4953739;28;20058;-79
2022/11/07 04:37:40;;;;;;;6.43;1.92;;;10.10;99.90;;;;;;4937019;28;20061;-79
2022/11/07 04:40:08;;;;;;;10.52;1.58;;;10.10;99.90;;;;;;4949996;28;20026;-80
2022/11/07 04:42:34;;;;;;;2.25;1.13;;;10.10;99.90;;;;;;4963257;28;20371;-80
2022/11/07 04:44:59;;;;;;;6.57;1.70;;;10.10;99.90;;;;;;4967471;28;20041;-80
2022/11/07 04:47:25;;;;;;;3.22;1.40;;;10.20;99.90;;;;;;4979675;28;20039;-79
2022/11/07 04:49:51;;;;;;;3.63;1.08;;;10.10;99.90;;;;;;4958895;28;20399;-80
2022/11/07 04:52:16;;;;;;;3.92;1.23;;;10.10;99.90;;;;;;4957526;28;20424;-79
2022/11/07 04:54:42;;;;;;;4.93;1.30;;;10.20;99.90;;;;;;4953134;28;20844;-80
2022/11/07 04:57:09;;;;;;;4.15;1.45;;;10.10;99.90;;;;;;4957105;28;20031;-79
2022/11/07 04:59:35;;;;;;;3.17;0.90;;;10.10;99.90;;;;;;4935914;28;20097;-80
2022/11/07 05:02:01;;;;;;;4.25;1.33;;;10.10;99.90;;;;;;4952052;28;20031;-79
2022/11/07 05:04:26;;;;;;;8.13;1.65;;;10.20;99.90;;;;;;4950678;28;20059;-80
2022/11/07 05:06:52;;;;;;;5.25;1.05;;;10.20;99.90;;;;;;4958310;28;20102;-79
2022/11/07 05:09:18;;;;;;;4.85;0.90;;;10.20;99.90;;;;;;4951876;28;20443;-80
2022/11/07 05:11:44;;;;;;;7.32;1.63;;;10.20;99.90;;;;;;4970322;28;20387;-80
2022/11/07 05:14:10;;;;;;;5.57;1.40;;;10.10;99.90;;;;;;4972382;28;20030;-79
2022/11/07 05:16:36;;;;;;;4.68;1.13;;;10.10;99.90;;;;;;4970343;28;20031;-80
2022/11/07 05:19:01;;;;;;;7.05;1.23;;;10.20;99.90;;;;;;4939959;28;20101;-80
2022/11/07 05:21:27;;;;;;;2.47;1.23;;;10.10;99.90;;;;;;4956091;28;20027;-80
2022/11/07 05:23:52;;;;;;;8.45;1.13;;;10.20;99.90;;;;;;4954058;28;20039;-80
2022/11/07 05:26:18;;;;;;;4.68;1.50;;;10.20;99.90;;;;;;4963227;28;20039;-79
2022/11/07 05:28:43;;;;;;;7.43;1.17;;;10.20;99.90;;;;;;4958931;28;20042;-79
2022/11/07 05:31:13;;;;;;;4.18;1.35;;;10.10;99.90;;;;;;4940949;28;20038;-79
2022/11/07 05:33:44;;;;;;;4.78;1.17;;;10.20;99.90;;;;;;4966816;28;20035;-79
2022/11/07 05:36:14;;;;;;;6.45;1.05;;;10.20;99.90;;;;;;4939879;28;20022;-79
2022/11/07 05:38:44;;;;;;;6.00;1.40;;;10.30;99.90;;;;;;4953575;28;20493;-79
2022/11/07 05:41:11;;;;;;;7.65;1.30;;;10.10;99.90;;;;;;4956050;28;20031;-80
2022/11/07 05:43:37;;;;;;;7.13;1.95;;;10.20;99.90;;;;;;4956195;28;20566;-80
2022/11/07 05:46:10;;;;;;;4.63;1.00;;;10.20;99.90;;;;;;4954731;28;20034;-79
2022/11/07 05:48:35;;;;;;;3.83;0.88;;;10.20;99.90;;;;;;4971844;28;20047;-80
2022/11/07 05:51:01;;;;;;;13.65;1.48;;;10.20;99.90;;;;;;4947814;28;20118;-80
2022/11/07 05:53:27;;;;;;;10.27;1.75;;;10.20;99.90;;;;;;4954542;28;20038;-79
2022/11/07 05:55:52;;;;;;;1.83;0.75;;;10.20;99.90;;;;;;4973274;28;20042;-79
2022/11/07 05:58:18;;;;;;;4.00;1.30;;;10.20;99.90;;;;;;4960218;28;20486;-79
2022/11/07 06:00:44;;;;;;;1.92;1.08;;;10.20;99.90;;;;;;4943934;28;20122;-79
2022/11/07 06:03:09;;;;;;;3.13;0.90;;;10.20;99.90;;;;;;4941490;28;20038;-80
2022/11/07 06:05:39;;;;;;;3.55;1.33;;;10.20;99.90;;;;;;4954930;28;20554;-81
2022/11/07 06:08:05;;;;;;;8.02;1.15;;;10.30;99.90;;;;;;4942482;28;20035;-79
2022/11/07 06:10:33;;;;;;;4.28;1.15;;;10.20;99.90;;;;;;4955966;28;20083;-80
2022/11/07 06:12:59;;;;;;;7.95;2.30;;;10.20;99.90;;;;;;4951663;28;20046;-79
2022/11/07 06:15:26;;;;;;;6.63;1.17;;;10.30;99.90;;;;;;4953818;28;20033;-79
2022/11/07 06:17:51;;;;;;;7.70;2.17;;;10.30;99.90;;;;;;4939837;28;20487;-81
2022/11/07 06:20:17;;;;;;;5.60;1.00;;;10.30;99.90;;;;;;4956085;28;20031;-80
2022/11/07 06:22:42;;;;;;;2.83;1.48;;;10.30;99.90;;;;;;4953807;28;20514;-80
2022/11/07 06:25:08;;;;;;;6.07;1.98;;;10.30;99.90;;;;;;4954018;28;20035;-81
2022/11/07 06:27:34;;;;;;;5.75;1.55;;;10.30;99.90;;;;;;4964659;28;20224;-80
2022/11/07 06:29:59;;;;;;;5.28;1.13;;;10.50;99.90;;;;;;4957337;28;20077;-80
2022/11/07 06:32:33;;;;;;;2.58;0.73;;;10.40;99.90;;;;;;4940198;28;20027;-80
2022/11/07 06:34:59;;;;;;;6.78;1.30;;;10.50;99.90;;;;;;4952290;28;20046;-80
2022/11/07 06:37:25;;;;;;;6.60;1.38;;;10.50;99.90;;;;;;4956501;28;20023;-80
2022/11/07 06:39:51;;;;;;;7.55;1.45;;;10.60;99.90;;;;;;4953222;28;20081;-79
2022/11/07 06:42:16;;;;;;;8.55;1.40;;;10.50;99.90;;;;;;4958353;28;20043;-80
2022/11/07 06:44:42;;;;;;;3.45;0.85;;;10.60;99.90;;;;;;4967797;28;20039;-80
2022/11/07 06:47:07;;;;;;;3.25;0.90;;;10.60;99.90;;;;;;4956735;28;20029;-79
2022/11/07 06:49:33;;;;;;;3.08;1.20;;;10.70;99.90;;;;;;4968914;28;20028;-79
2022/11/07 06:51:58;;;;;;;5.53;1.17;;;10.70;99.90;;;;;;4972393;28;20027;-80
2022/11/07 06:54:24;;;;;;;7.20;1.23;;;10.70;99.90;;;;;;4954116;28;20035;-80
2022/11/07 06:56:49;;;;;;;14.88;1.40;;;10.80;99.90;;;;;;4935832;28;20041;-79
2022/11/07 06:59:15;;;;;;;3.10;1.42;;;10.80;99.90;;;;;;4958867;28;20122;-80
2022/11/07 07:01:40;;;;;;;3.85;1.33;;;10.80;99.90;;;;;;4953958;28;20063;-79
2022/11/07 07:04:10;;;;;;;10.85;1.95;;;10.90;99.90;;;;;;4938956;28;20078;-80
2022/11/07 07:06:38;;;;;;;7.95;1.77;;;10.90;99.90;;;;;;4968738;28;20145;-80
2022/11/07 07:09:05;;;;;;;4.15;0.93;;;10.90;99.90;;;;;;4938930;28;20030;-80
2022/11/07 07:11:33;;;;;;;4.35;1.40;;;10.90;99.90;;;;;;4940585;28;20203;-80
2022/11/07 07:13:59;;;;;;;7.70;1.10;;;10.90;99.90;;;;;;4953296;28;20027;-80
2022/11/07 07:16:24;;;;;;;4.63;1.75;;;10.90;99.90;;;;;;4952570;28;20383;-80
2022/11/07 07:18:50;;;;;;;11.50;1.55;;;11.00;99.90;;;;;;4966362;28;20118;-81
2022/11/07 07:21:15;;;;;;;6.70;1.45;;;11.00;99.90;;;;;;4953560;28;20051;-80
2022/11/07 07:23:41;;;;;;;7.75;1.63;;;10.90;99.90;;;;;;4939745;28;20035;-80
2022/11/07 07:26:11;;;;;;;8.63;1.50;;;11.00;99.90;;;;;;4937111;28;20054;-78
2022/11/07 07:28:37;;;;;;;6.05;0.95;;;11.00;99.90;;;;;;4965642;28;20573;-79
2022/11/07 07:31:12;;;;;;;11.75;1.63;;;11.00;99.90;;;;;;4966976;28;20027;-78
2022/11/07 07:33:37;;;;;;;3.38;1.20;;;11.10;99.90;;;;;;4965030;28;20039;-79
2022/11/07 07:36:03;;;;;;;7.60;1.17;;;11.10;99.90;;;;;;4948711;28;20642;-78
2022/11/07 07:38:29;;;;;;;5.50;1.10;;;11.20;99.90;;;;;;4967232;28;20023;-78
2022/11/07 07:40:56;;;;;;;11.57;2.10;;;11.30;99.90;;;;;;4965253;28;20449;-78
2022/11/07 07:43:22;;;;;;;7.15;1.42;;;11.20;99.90;;;;;;4954185;28;20058;-78
2022/11/07 07:45:47;;;;;;;4.95;0.98;;;11.30;99.90;;;;;;4935864;28;20438;-78
2022/11/07 07:48:13;;;;;;;8.07;1.45;;;11.30;99.90;;;;;;4952404;28;20053;-79
2022/11/07 07:50:38;;;;;;;6.35;1.15;;;11.30;99.90;;;;;;4934462;28;20043;-79
2022/11/07 07:53:04;;;;;;;6.38;1.38;;;11.30;99.90;;;;;;4950630;28;20138;-79
2022/11/07 07:55:29;;;;;;;7.55;1.35;;;11.40;99.90;;;;;;4953030;28;20471;-79
2022/11/07 07:57:55;;;;;;;8.30;1.38;;;11.40;99.90;;;;;;4970509;28;20113;-79
2022/11/07 08:00:21;;;;;;;10.43;1.60;;;11.40;99.90;;;;;;4978456;28;20037;-79
2022/11/07 08:02:46;;;;;;;5.72;1.25;;;11.50;99.90;;;;;;4957993;28;20030;-79
2022/11/07 08:05:12;;;;;;;9.05;2.00;;;11.50;99.90;;;;;;4956025;28;20061;-79
2022/11/07 08:07:48;;;;;;;7.70;1.48;;;11.60;99.90;;;;;;4936098;28;24595;-79
2022/11/07 08:10:13;;;;;;;11.70;1.25;;;11.60;99.90;;;;;;4955247;28;20493;-79
2022/11/07 08:12:47;;;;;;;8.93;1.58;;;11.70;99.90;;;;;;4967850;28;20046;-79
2022/11/07 08:15:13;;;;;;;4.32;0.75;;;11.70;99.90;;;;;;4949749;28;20039;-79
2022/11/07 08:17:39;;;;;;;4.57;0.98;;;11.70;99.90;;;;;;4964487;28;20042;-79
2022/11/07 08:20:05;;;;;;;3.28;0.93;;;11.80;99.90;;;;;;4953788;28;20116;-79
2022/11/07 08:22:31;;;;;;;12.82;2.17;;;11.90;99.90;;;;;;4968120;28;20027;-80
2022/11/07 08:24:56;;;;;;;3.30;0.68;;;11.90;99.90;;;;;;4938736;28;20042;-80
2022/11/07 08:27:22;;;;;;;7.53;1.27;;;12.00;99.90;;;;;;4956119;28;20019;-79
2022/11/07 08:29:47;;;;;;;4.88;1.13;;;12.10;99.90;;;;;;4950511;28;20618;-79
2022/11/07 08:32:14;;;;;;;9.20;1.73;;;12.00;99.90;;;;;;4967703;28;20434;-79
2022/11/07 08:34:40;;;;;;;5.95;1.77;;;12.10;99.90;;;;;;4984839;28;20113;-79
2022/11/07 08:37:06;;;;;;;8.15;1.30;;;12.10;99.90;;;;;;4937441;28;20478;-79
2022/11/07 08:39:31;;;;;;;8.40;1.48;;;12.10;99.90;;;;;;4955227;28;20027;-80
2022/11/07 08:41:57;;;;;;;7.13;2.28;;;12.10;99.90;;;;;;4956216;28;20073;-79
2022/11/07 08:44:23;;;;;;;10.88;1.75;;;12.10;99.90;;;;;;4952246;28;20035;-79
2022/11/07 08:46:49;;;;;;;5.05;1.08;;;12.10;99.90;;;;;;4940222;28;20059;-79
2022/11/07 08:49:14;;;;;;;7.70;1.98;;;12.20;99.90;;;;;;4936785;28;20066;-79
2022/11/07 08:51:40;;;;;;;7.85;1.40;;;12.20;99.90;;;;;;4972828;28;20039;-79
2022/11/07 08:54:05;;;;;;;11.85;1.90;;;12.30;99.90;;;;;;4939815;28;20026;-79
2022/11/07 08:56:32;;;;;;;5.38;1.42;;;12.20;99.90;;;;;;4952600;28;20030;-80
2022/11/07 08:58:58;;;;;;;4.60;0.93;;;12.30;99.90;;;;;;4967077;28;20035;-79
2022/11/07 09:01:24;;;;;;;9.32;1.77;;;12.30;99.90;;;;;;4983975;28;20042;-80
2022/11/07 09:03:50;;;;;;;5.20;1.75;;;12.30;99.90;;;;;;4985744;28;20047;-79
2022/11/07 09:06:16;;;;;;;9.30;1.75;;;12.30;99.90;;;;;;4943094;28;20031;-79
2022/11/07 09:08:42;;;;;;;6.07;1.30;;;12.40;99.90;;;;;;4956668;28;20095;-80
2022/11/07 09:11:09;;;;;;;3.72;0.88;;;12.30;99.90;;;;;;4953855;28;20035;-79
2022/11/07 09:13:35;;;;;;;7.57;1.83;;;12.40;99.90;;;;;;4971106;28;20105;-79
2022/11/07 09:16:01;;;;;;;7.47;1.67;;;12.40;99.90;;;;;;4955020;28;20042;-80
2022/11/07 09:18:27;;;;;;;6.18;1.75;;;12.40;99.90;;;;;;4940418;28;20080;-80
2022/11/07 09:20:52;;;;;;;8.82;2.13;;;12.50;99.90;;;;;;4956723;28;20510;-80
2022/11/07 09:23:18;;;;;;;4.47;1.23;;;12.50;99.90;;;;;;4968501;28;20114;-79
2022/11/07 09:25:44;;;;;;;11.02;1.42;;;12.60;99.90;;;;;;4952947;28;20034;-80
2022/11/07 09:28:09;;;;;;;9.38;1.30;;;12.60;99.90;;;;;;4954762;28;20094;-80
2022/11/07 09:30:35;;;;;;;8.20;2.20;;;12.60;99.90;;;;;;4950550;28;20477;-80
2022/11/07 09:33:10;;;;;;;11.27;1.42;;;12.70;99.90;;;;;;4957384;28;20037;-80
2022/11/07 09:35:35;;;;;;;3.13;0.75;;;12.70;99.90;;;;;;4954086;28;20039;-80
2022/11/07 09:38:01;;;;;;;4.78;1.75;;;12.90;99.90;;;;;;4968060;28;20418;-80
2022/11/07 09:40:26;;;;;;;5.30;1.10;;;12.90;99.90;;;;;;4952027;28;20382;-80
2022/11/07 09:43:21;;;;;;;8.07;2.03;;;13.00;99.90;;;;;;4953010;28;20036;-80
2022/11/07 09:46:00;;;;;;;3.92;1.20;;;13.00;99.90;;;;;;4953181;28;20038;-80
2022/11/07 09:48:26;;;;;;;2.97;1.27;;;13.00;99.90;;;;;;4971378;28;20046;-81
2022/11/07 09:50:51;;;;;;;6.63;1.35;;;13.00;99.90;;;;;;4942937;28;20039;-80
2022/11/07 09:53:26;;;;;;;7.72;1.05;;;13.00;99.90;;;;;;4957240;28;20034;-80
2022/11/07 09:56:08;;;;;;;6.18;1.25;;;13.10;99.90;;;;;;4952253;28;20046;-80
2022/11/07 09:58:35;;;;;;;5.72;1.20;;;13.00;99.90;;;;;;4969765;28;20106;-80
2022/11/07 10:01:06;;;;;;;6.05;1.15;;;13.20;99.90;;;;;;4935740;28;20172;-79
2022/11/07 10:03:33;;;;;;;9.80;1.83;;;13.10;99.90;;;;;;4952575;28;20055;-80
2022/11/07 10:05:58;;;;;;;1.77;0.70;;;13.00;99.90;;;;;;4981096;28;20042;-80
2022/11/07 10:08:38;;;;;;;8.10;1.42;;;13.00;99.90;;;;;;4984349;28;20043;-81
2022/11/07 10:11:27;;;;;;;7.50;1.85;;;13.00;99.90;;;;;;4968733;28;20109;-81
2022/11/07 10:14:01;;;;;;;9.07;1.23;;;12.90;99.90;;;;;;4954390;28;20031;-81
2022/11/07 10:16:56;;;;;;;3.25;1.02;;;12.80;99.90;;;;;;4965660;28;20094;-81
2022/11/07 10:19:49;;;;;;;6.00;1.30;;;12.70;99.90;;;;;;4943001;28;20041;-81
2022/11/07 10:23:08;;;;;;;4.85;1.20;;;12.70;99.90;;;;;;4965730;28;20541;-81
2022/11/07 10:26:02;;;;;;;9.13;1.60;;;12.60;99.90;;;;;;4899176;28;21171;-80
2022/11/07 10:28:28;;;;;;;12.90;1.77;;;12.60;99.90;;;;;;4964652;28;20039;-81
2022/11/07 10:30:54;;;;;;;4.43;1.33;;;12.40;99.90;;;;;;4968369;28;20775;-81
2022/11/07 10:33:45;;;;;;;4.43;1.13;;;12.50;99.90;;;;;;4934966;28;20122;-81
2022/11/07 10:36:25;;;;;;;10.93;0.90;;;12.40;99.90;;;;;;4938441;28;20037;-81
2022/11/07 10:38:51;;;;;;;4.85;0.68;;;12.40;99.90;;;;;;4959884;28;20043;-81
2022/11/07 10:41:27;;;;;;;6.05;1.33;;;12.40;99.90;;;;;;4951929;28;20030;-81
2022/11/07 10:43:55;;;;;;;8.00;1.35;;;12.40;99.90;;;;;;4938396;28;20128;-81
2022/11/07 10:46:25;;;;;;;5.50;1.35;;;12.40;99.90;;;;;;4956488;28;20114;-81
2022/11/07 10:48:51;;;;;;;9.45;2.13;;;12.40;99.90;;;;;;4935894;28;20036;-81
2022/11/07 10:51:17;;;;;;;6.30;1.17;;;12.30;99.90;;;;;;4950769;28;20035;-81
2022/11/07 10:53:43;;;;;;;5.93;1.30;;;12.50;99.90;;;;;;4969722;28;20041;-81
2022/11/07 10:56:08;;;;;;;6.18;1.48;;;12.40;99.90;;;;;;4936598;28;20103;-81
2022/11/07 10:58:35;;;;;;;9.68;2.15;;;12.40;99.90;;;;;;4956086;28;20106;-81
2022/11/07 11:01:07;;;;;;;5.90;1.38;;;12.40;99.90;;;;;;4941922;28;20490;-81
2022/11/07 11:03:37;;;;;;;4.55;1.48;;;12.40;99.90;;;;;;4945507;28;20066;-81
2022/11/07 11:06:16;;;;;;;11.02;1.73;;;12.50;99.90;;;;;;4951061;28;20043;-81
2022/11/07 11:08:41;;;;;;;9.63;1.65;;;12.50;99.90;;;;;;4921494;28;20122;-82
2022/11/07 11:11:36;;;;;;;5.25;1.75;;;12.50;99.90;;;;;;4954326;28;20548;-81
2022/11/07 11:14:15;;;;;;;9.27;2.03;;;12.60;99.90;;;;;;4613605;28;10000614;-81
2022/11/07 11:16:41;;;;;;;4.43;1.30;;;12.60;99.90;;;;;;4950186;28;20485;-81
2022/11/07 11:19:25;;;;;;;5.30;1.55;;;12.60;99.90;;;;;;4949048;28;20038;-81
2022/11/07 11:21:52;;;;;;;4.50;2.33;;;12.60;99.90;;;;;;4980118;28;20695;-81
2022/11/07 11:24:36;;;;;;;7.95;1.10;;;12.60;99.90;;;;;;4965584;28;20126;-81
2022/11/07 11:27:22;;;;;;;9.00;2.03;;;12.70;99.90;;;;;;4951521;28;20042;-81
2022/11/07 11:29:54;;;;;;;6.13;1.23;;;12.70;99.90;;;;;;4946335;28;20051;-81
2022/11/07 11:32:26;;;;;;;5.35;1.25;;;12.80;99.90;;;;;;4962717;28;20787;-82
2022/11/07 11:35:10;;;;;;;3.28;1.00;;;12.90;99.90;;;;;;4967746;28;20043;-81
2022/11/07 11:37:37;;;;;;;7.88;1.40;;;12.90;99.90;;;;;;4953810;28;20035;-81
2022/11/07 11:40:03;;;;;;;3.08;0.80;;;13.10;99.90;;;;;;4934962;28;20053;-81
2022/11/07 11:42:36;;;;;;;6.28;1.38;;;13.10;99.90;;;;;;4952468;28;20027;-82
2022/11/07 11:45:30;;;;;;;5.07;2.03;;;13.20;99.90;;;;;;4953404;28;20693;-81
2022/11/07 11:48:19;;;;;;;10.38;1.83;;;13.20;99.90;;;;;;4927423;28;20027;-82
2022/11/07 11:50:47;;;;;;;9.65;1.73;;;13.30;99.90;;;;;;4937309;28;20105;-81
2022/11/07 11:53:15;;;;;;;4.97;1.42;;;13.40;99.90;;;;;;4938754;28;20026;-82
2022/11/07 11:55:46;;;;;;;7.70;1.55;;;13.40;99.90;;;;;;4967941;28;20438;-82
2022/11/07 11:58:26;;;;;;;10.02;1.60;;;13.40;99.90;;;;;;4934289;28;20478;-81
2022/11/07 12:01:06;;;;;;;8.43;2.10;;;13.40;99.90;;;;;;4970734;28;20035;-82
2022/11/07 12:03:59;;;;;;;14.30;2.25;;;13.50;99.90;;;;;;4951104;28;20023;-82
2022/11/07 12:06:38;;;;;;;6.90;2.00;;;13.50;99.90;;;;;;4947832;28;20519;-82
2022/11/07 12:09:31;;;;;;;9.73;1.90;;;13.50;99.90;;;;;;4953840;28;20100;-82
2022/11/07 12:12:14;;;;;;;5.13;1.67;;;13.60;99.90;;;;;;4939578;28;20490;-82
2022/11/07 12:15:11;;;;;;;11.77;2.00;;;13.60;99.90;;;;;;4933662;28;20415;-82
2022/11/07 12:17:51;;;;;;;10.73;2.50;;;13.60;99.90;;;;;;4941418;28;20037;-82
2022/11/07 12:20:39;;;;;;;5.13;2.10;;;13.70;99.90;;;;;;4952943;28;20063;-82
2022/11/07 12:23:24;;;;;;;11.93;2.47;;;13.70;99.90;;;;;;4935851;28;20039;-82
2022/11/07 12:26:04;;;;;;;4.25;0.90;;;13.60;99.90;;;;;;4967969;28;21000;-82
2022/11/07 12:28:55;;;;;;;8.65;0.95;;;13.70;99.90;;;;;;4945579;28;20031;-82
2022/11/07 12:31:48;;;;;;;8.68;1.63;;;13.80;99.90;;;;;;4948414;28;20540;-82
2022/11/07 12:34:38;;;;;;;6.07;1.60;;;13.90;99.90;;;;;;4950483;28;20038;-81
2022/11/07 12:37:10;;;;;;;13.93;1.60;;;14.00;99.90;;;;;;4963353;28;20516;-82
2022/11/07 12:39:42;;;;;;;6.82;1.40;;;13.90;99.90;;;;;;4948319;28;20035;-82
2022/11/07 12:42:19;;;;;;;7.55;2.35;;;14.00;99.90;;;;;;4969030;28;20039;-82
2022/11/07 12:45:02;;;;;;;4.93;1.50;;;14.20;99.90;;;;;;4950210;28;20059;-82
2022/11/07 12:47:45;;;;;;;5.70;2.03;;;14.30;99.90;;;;;;4934093;28;20027;-82
2022/11/07 12:50:34;;;;;;;8.93;1.77;;;14.30;99.90;;;;;;4981575;28;20049;-82
2022/11/07 12:53:26;;;;;;;5.78;1.30;;;14.40;99.90;;;;;;4950500;28;20477;-82
2022/11/07 12:56:02;;;;;;;4.10;1.55;;;14.50;99.90;;;;;;4935302;28;20039;-82
2022/11/07 12:58:32;;;;;;;12.13;1.90;;;14.50;99.90;;;;;;4952005;28;20500;-82
2022/11/07 13:00:58;;;;;;;10.52;1.50;;;14.60;99.90;;;;;;4953869;28;20089;-83
2022/11/07 13:03:44;;;;;;;9.02;1.33;;;14.60;99.90;;;;;;4951694;28;20039;-82
2022/11/07 13:06:18;;;;;;;7.70;1.17;;;14.70;99.90;;;;;;4952276;28;20933;-82
2022/11/07 13:08:50;;;;;;;5.13;0.98;;;14.80;99.90;;;;;;4957483;28;20185;-83